createdAt,value
2022-08-12T00:00:00.275Z,23.57
2022-08-12T00:02:46.163Z,23.56
2022-08-12T00:05:31.988Z,23.56
2022-08-12T00:08:17.766Z,23.56
2022-08-12T00:11:17.132Z,23.56
2022-08-12T00:14:03.545Z,23.56
2022-08-12T00:16:49.993Z,23.55
2022-08-12T00:19:35.738Z,23.56
2022-08-12T00:22:21.584Z,23.57
2022-08-12T00:25:06.788Z,23.55
2022-08-12T00:27:52.259Z,23.55
2022-08-12T00:30:39.234Z,23.55
2022-08-12T00:33:29.708Z,23.55
2022-08-12T00:36:34.706Z,23.55
2022-08-12T00:39:22.444Z,23.54
2022-08-12T00:42:08.739Z,23.54
2022-08-12T00:44:37.053Z,23.54
2022-08-12T00:47:09.460Z,23.54
2022-08-12T00:49:54.574Z,23.54
2022-08-12T00:52:23.859Z,23.54
2022-08-12T00:54:53.951Z,23.53
2022-08-12T00:57:23.970Z,23.53
2022-08-12T00:59:54.230Z,23.53
2022-08-12T01:02:27.228Z,23.53
2022-08-12T01:05:15.418Z,23.53
2022-08-12T01:08:01.655Z,23.52
2022-08-12T01:10:50.330Z,23.53
2022-08-12T01:13:20.486Z,23.53
2022-08-12T01:15:51.290Z,23.53
2022-08-12T01:18:22.458Z,23.53
2022-08-12T01:21:01.244Z,23.52
2022-08-12T01:23:50.144Z,23.52
2022-08-12T01:26:21.430Z,23.52
2022-08-12T01:28:52.541Z,23.51
2022-08-12T01:31:21.567Z,23.52
2022-08-12T01:34:03.043Z,23.52
2022-08-12T01:36:38.451Z,23.52
2022-08-12T01:39:06.636Z,23.52
2022-08-12T01:41:40.097Z,23.52
2022-08-12T01:44:10.467Z,23.51
2022-08-12T01:46:50.049Z,23.51
2022-08-12T01:49:45.067Z,23.51
2022-08-12T01:52:25.241Z,23.51
2022-08-12T01:54:54.845Z,23.51
2022-08-12T01:57:59.104Z,23.50
2022-08-12T02:00:17.799Z,23.51
2022-08-12T02:02:53.530Z,23.50
2022-08-12T02:05:51.298Z,23.50
2022-08-12T02:08:52.122Z,23.51
2022-08-12T02:11:25.779Z,23.50
2022-08-12T02:14:30.817Z,23.50
2022-08-12T02:17:08.711Z,23.49
2022-08-12T02:19:49.135Z,23.50
2022-08-12T02:22:29.200Z,23.50
2022-08-12T02:25:07.768Z,23.48
2022-08-12T02:27:40.729Z,23.48
2022-08-12T02:30:14.446Z,23.48
2022-08-12T02:32:44.582Z,23.49
2022-08-12T02:35:16.460Z,23.48
2022-08-12T02:37:45.518Z,23.48
2022-08-12T02:40:14.970Z,23.47
2022-08-12T02:42:52.152Z,23.48
2022-08-12T02:45:28.336Z,23.48
2022-08-12T02:48:01.067Z,23.46
2022-08-12T02:50:32.624Z,23.46
2022-08-12T02:53:01.591Z,23.47
2022-08-12T02:55:34.953Z,23.45
2022-08-12T02:58:09.240Z,23.47
2022-08-12T03:00:43.315Z,23.46
2022-08-12T03:03:14.124Z,23.45
2022-08-12T03:05:59.635Z,23.47
2022-08-12T03:08:33.205Z,23.47
2022-08-12T03:11:18.009Z,23.46
2022-08-12T03:13:48.699Z,23.45
2022-08-12T03:16:20.199Z,23.46
2022-08-12T03:18:49.825Z,23.46
2022-08-12T03:21:52.924Z,23.45
2022-08-12T03:24:09.264Z,23.46
2022-08-12T03:26:38.216Z,23.46
2022-08-12T03:29:07.663Z,23.45
2022-08-12T03:31:36.988Z,23.45
2022-08-12T03:34:07.590Z,23.45
2022-08-12T03:36:38.286Z,23.45
2022-08-12T03:39:35.859Z,23.46
2022-08-12T03:42:28.243Z,23.44
2022-08-12T03:45:35.471Z,23.44
2022-08-12T03:48:37.491Z,23.44
2022-08-12T03:51:23.792Z,23.43
2022-08-12T03:54:11.324Z,23.44
2022-08-12T03:56:57.935Z,23.44
2022-08-12T03:59:43.844Z,23.44
2022-08-12T04:02:15.407Z,23.44
2022-08-12T04:04:46.474Z,23.44
2022-08-12T04:07:16.357Z,23.43
2022-08-12T04:09:46.218Z,23.43
2022-08-12T04:12:33.237Z,23.44
2022-08-12T04:15:02.669Z,23.43
2022-08-12T04:17:32.385Z,23.43
2022-08-12T04:20:02.044Z,23.43
2022-08-12T04:22:30.920Z,23.43
2022-08-12T04:25:01.575Z,23.43
2022-08-12T04:27:31.670Z,23.43
2022-08-12T04:30:30.290Z,23.43
2022-08-12T04:32:50.554Z,23.43
2022-08-12T04:35:20.014Z,23.42
2022-08-12T04:37:58.536Z,23.43
2022-08-12T04:40:31.932Z,23.42
2022-08-12T04:43:02.084Z,23.33
2022-08-12T04:45:31.013Z,23.19
2022-08-12T04:47:58.942Z,23.05
2022-08-12T04:50:36.128Z,23.02
2022-08-12T04:53:08.235Z,23.00
2022-08-12T04:55:38.711Z,22.95
2022-08-12T04:58:06.810Z,22.93
2022-08-12T05:00:35.551Z,22.90
2022-08-12T05:03:03.638Z,22.89
2022-08-12T05:05:36.421Z,22.88
2022-08-12T05:08:07.889Z,22.82
2022-08-12T05:10:36.340Z,22.80
2022-08-12T05:13:08.439Z,22.79
2022-08-12T05:15:37.778Z,22.78
2022-08-12T05:18:25.734Z,22.75
2022-08-12T05:20:59.863Z,22.74
2022-08-12T05:23:28.217Z,22.72
2022-08-12T05:25:57.519Z,22.72
2022-08-12T05:28:27.033Z,22.71
2022-08-12T05:30:56.295Z,22.68
2022-08-12T05:33:37.518Z,22.67
2022-08-12T05:38:55.492Z,22.67
2022-08-12T05:41:24.780Z,22.68
2022-08-12T05:43:54.005Z,22.65
2022-08-12T05:46:22.400Z,22.63
2022-08-12T05:48:52.266Z,22.62
2022-08-12T05:51:24.700Z,22.57
2022-08-12T05:53:58.818Z,22.50
2022-08-12T05:56:29.294Z,22.52
2022-08-12T05:58:58.494Z,22.54
2022-08-12T06:02:10.884Z,22.57
2022-08-12T06:04:15.816Z,22.60
2022-08-12T06:06:51.311Z,22.60
2022-08-12T06:09:19.279Z,22.63
2022-08-12T06:11:54.000Z,22.65
2022-08-12T06:14:36.921Z,22.66
2022-08-12T06:17:07.918Z,22.71
2022-08-12T06:20:26.539Z,22.74
2022-08-12T06:22:26.646Z,22.75
2022-08-12T06:24:54.663Z,22.76
2022-08-12T06:27:22.695Z,22.77
2022-08-12T06:30:08.848Z,22.79
2022-08-12T06:32:51.876Z,22.79
2022-08-12T06:35:48.687Z,22.82
2022-08-12T06:38:18.994Z,22.84
2022-08-12T06:41:05.933Z,22.86
2022-08-12T06:44:06.307Z,22.88
2022-08-12T06:46:23.235Z,22.88
2022-08-12T06:48:56.267Z,22.90
2022-08-12T06:51:24.472Z,22.92
2022-08-12T06:53:53.837Z,22.93
2022-08-12T06:56:30.466Z,22.94
2022-08-12T06:59:08.797Z,22.95
2022-08-12T07:01:37.540Z,22.97
2022-08-12T07:04:26.389Z,22.98
2022-08-12T07:06:55.769Z,23.01
2022-08-12T07:10:03.821Z,23.02
2022-08-12T07:12:17.020Z,23.04
2022-08-12T07:14:48.449Z,23.06
2022-08-12T07:17:16.881Z,23.08
2022-08-12T07:19:46.900Z,23.09
2022-08-12T07:22:16.924Z,23.10
2022-08-12T07:25:06.492Z,23.12
2022-08-12T07:27:40.623Z,23.16
2022-08-12T07:30:10.112Z,23.17
2022-08-12T07:32:38.133Z,23.18
2022-08-12T07:35:06.863Z,23.20
2022-08-12T07:37:35.051Z,23.20
2022-08-12T07:40:05.714Z,23.21
2022-08-12T07:42:34.032Z,23.22
2022-08-12T07:45:02.257Z,23.23
2022-08-12T07:47:30.901Z,23.24
2022-08-12T07:50:03.646Z,23.27
2022-08-12T07:52:34.845Z,23.27
2022-08-12T07:55:05.330Z,23.28
2022-08-12T07:57:33.695Z,23.29
2022-08-12T08:00:05.233Z,23.30
2022-08-12T08:02:36.416Z,23.30
2022-08-12T08:05:05.484Z,23.31
2022-08-12T08:07:33.594Z,23.34
2022-08-12T08:10:03.966Z,23.34
2022-08-12T08:12:50.743Z,23.35
2022-08-12T08:15:20.227Z,23.37
2022-08-12T08:17:59.604Z,23.38
2022-08-12T08:20:29.563Z,23.39
2022-08-12T08:22:59.364Z,23.40
2022-08-12T08:25:36.500Z,23.39
2022-08-12T08:28:09.604Z,23.40
2022-08-12T08:30:39.796Z,23.41
2022-08-12T08:33:23.096Z,23.41
2022-08-12T08:35:54.389Z,23.42
2022-08-12T08:38:32.245Z,23.41
2022-08-12T08:42:19.272Z,23.43
2022-08-12T08:44:12.043Z,23.44
2022-08-12T08:46:40.366Z,23.45
2022-08-12T08:49:08.678Z,23.45
2022-08-12T08:51:37.375Z,23.45
2022-08-12T08:54:06.848Z,23.47
2022-08-12T08:56:36.232Z,23.46
2022-08-12T08:59:04.758Z,23.46
2022-08-12T09:01:37.525Z,23.46
2022-08-12T09:05:09.196Z,23.46
2022-08-12T09:06:56.715Z,23.47
2022-08-12T09:09:24.934Z,23.47
2022-08-12T09:12:27.243Z,23.47
2022-08-12T09:14:55.782Z,23.50
2022-08-12T09:17:26.714Z,23.51
2022-08-12T09:20:10.920Z,23.52
2022-08-12T09:22:48.959Z,23.52
2022-08-12T09:25:25.570Z,23.52
2022-08-12T09:28:03.403Z,23.52
2022-08-12T09:30:41.757Z,23.52
2022-08-12T09:33:18.697Z,23.52
2022-08-12T09:36:04.291Z,23.54
2022-08-12T09:38:33.849Z,23.53
2022-08-12T09:42:33.418Z,23.53
2022-08-12T09:44:37.771Z,23.53
2022-08-12T09:46:58.538Z,23.54
2022-08-12T09:49:41.476Z,23.54
2022-08-12T09:52:11.706Z,23.54
2022-08-12T09:54:43.018Z,23.54
2022-08-12T09:58:07.419Z,23.55
2022-08-12T10:00:13.348Z,23.55
2022-08-12T10:03:03.933Z,23.56
2022-08-12T10:06:11.857Z,23.56
2022-08-12T10:08:27.518Z,23.56
2022-08-12T10:11:20.373Z,23.56
2022-08-12T10:13:50.229Z,23.58
2022-08-12T10:16:22.326Z,23.57
2022-08-12T10:18:53.715Z,23.57
2022-08-12T10:21:36.499Z,23.57
2022-08-12T10:24:08.378Z,23.57
2022-08-12T10:27:05.648Z,23.58
2022-08-12T10:30:37.723Z,23.60
2022-08-12T10:32:43.059Z,23.60
2022-08-12T10:35:18.048Z,23.60
2022-08-12T10:38:35.919Z,23.60
2022-08-12T10:40:57.650Z,23.60
2022-08-12T10:43:55.582Z,23.61
2022-08-12T10:46:30.623Z,23.61
2022-08-12T10:49:07.073Z,23.61
2022-08-12T10:52:31.034Z,23.61
2022-08-12T10:54:42.564Z,23.62
2022-08-12T10:57:18.339Z,23.63
2022-08-12T11:00:34.255Z,23.63
2022-08-12T11:04:23.266Z,23.65
2022-08-12T11:07:07.184Z,23.65
2022-08-12T11:08:39.623Z,23.64
2022-08-12T11:11:16.928Z,23.64
2022-08-12T11:13:48.986Z,23.65
2022-08-12T11:16:22.113Z,23.65
2022-08-12T11:18:55.180Z,23.65
2022-08-12T11:21:56.327Z,23.66
2022-08-12T11:24:30.562Z,23.66
2022-08-12T11:27:07.674Z,23.65
2022-08-12T11:30:01.642Z,23.65
2022-08-12T11:32:26.772Z,23.65
2022-08-12T11:34:55.313Z,23.66
2022-08-12T11:37:27.476Z,23.66
2022-08-12T11:42:39.862Z,23.66
2022-08-12T11:45:16.513Z,23.66
2022-08-12T11:47:45.172Z,23.67
2022-08-12T11:50:21.423Z,23.67
2022-08-12T11:53:00.247Z,23.67
2022-08-12T11:55:30.678Z,23.67
2022-08-12T11:58:32.216Z,23.68
2022-08-12T12:03:43.953Z,23.69
2022-08-12T12:06:16.936Z,23.69
2022-08-12T12:08:50.793Z,23.68
2022-08-12T12:11:21.258Z,23.68
2022-08-12T12:14:07.955Z,23.68
2022-08-12T12:16:40.087Z,23.68
2022-08-12T12:19:10.597Z,23.69
2022-08-12T12:21:48.604Z,23.69
2022-08-12T12:24:21.838Z,23.70
2022-08-12T12:26:59.711Z,23.69
2022-08-12T12:30:13.445Z,23.70
2022-08-12T12:32:29.789Z,23.70
2022-08-12T12:35:14.131Z,23.70
2022-08-12T12:38:05.312Z,23.71
2022-08-12T12:40:43.698Z,23.71
2022-08-12T12:43:12.917Z,23.71
2022-08-12T12:45:46.492Z,23.71
2022-08-12T12:48:15.983Z,23.73
2022-08-12T12:50:51.772Z,23.71
2022-08-12T12:54:06.982Z,23.71
2022-08-12T12:56:15.731Z,23.73
2022-08-12T12:58:44.177Z,23.73
2022-08-12T13:01:25.309Z,23.72
2022-08-12T13:03:56.360Z,23.73
2022-08-12T13:06:30.877Z,23.73
2022-08-12T13:09:03.047Z,23.74
2022-08-12T13:11:41.781Z,23.74
2022-08-12T13:14:28.151Z,23.74
2022-08-12T13:17:02.326Z,23.74
2022-08-12T13:19:37.851Z,23.74
2022-08-12T13:22:18.616Z,23.73
2022-08-12T13:24:51.936Z,23.74
2022-08-12T13:27:22.829Z,23.74
2022-08-12T13:30:00.859Z,23.75
2022-08-12T13:32:33.057Z,23.75
2022-08-12T13:35:03.894Z,23.76
2022-08-12T13:37:44.140Z,23.75
2022-08-12T13:40:20.027Z,23.76
2022-08-12T13:42:48.874Z,23.77
2022-08-12T13:45:19.141Z,23.78
2022-08-12T13:47:56.634Z,23.79
2022-08-12T13:50:32.567Z,23.78
2022-08-12T13:53:23.408Z,23.79
2022-08-12T13:56:01.960Z,23.79
2022-08-12T13:58:32.884Z,23.79
2022-08-12T14:01:06.011Z,23.79
2022-08-12T14:03:50.616Z,23.79
2022-08-12T14:06:21.114Z,23.81
2022-08-12T14:08:50.594Z,23.79
2022-08-12T14:11:19.416Z,23.80
2022-08-12T14:14:03.376Z,23.80
2022-08-12T14:16:48.307Z,23.80
2022-08-12T14:19:24.434Z,23.82
2022-08-12T14:22:01.427Z,23.82
2022-08-12T14:24:35.634Z,23.82
2022-08-12T14:27:08.774Z,23.83
2022-08-12T14:30:06.144Z,23.82
2022-08-12T14:32:35.269Z,23.83
2022-08-12T14:35:09.312Z,23.82
2022-08-12T14:37:57.246Z,23.83
2022-08-12T14:40:29.075Z,23.84
2022-08-12T14:42:58.312Z,23.84
2022-08-12T14:45:45.255Z,23.83
2022-08-12T14:48:16.598Z,23.84
2022-08-12T14:51:02.754Z,23.84
2022-08-12T14:59:57.093Z,23.85
2022-08-12T15:02:21.081Z,23.86
2022-08-12T15:04:59.485Z,23.85
2022-08-12T15:07:33.146Z,23.85
2022-08-12T15:10:12.681Z,23.85
2022-08-12T15:12:40.898Z,23.87
2022-08-12T15:15:10.496Z,23.87
2022-08-12T15:17:39.866Z,23.87
2022-08-12T15:20:30.794Z,23.87
2022-08-12T15:22:59.968Z,23.88
2022-08-12T15:25:28.729Z,23.88
2022-08-12T15:28:05.304Z,23.89
2022-08-12T15:30:37.256Z,23.89
2022-08-12T15:33:14.863Z,23.89
2022-08-12T15:35:50.347Z,23.90
2022-08-12T15:38:27.111Z,23.90
2022-08-12T15:40:59.095Z,23.91
2022-08-12T15:44:16.089Z,23.91
2022-08-12T15:46:17.991Z,23.92
2022-08-12T15:48:49.413Z,23.92
2022-08-12T15:51:59.714Z,24.00
2022-08-12T15:54:33.250Z,24.08
2022-08-12T15:57:08.141Z,24.14
2022-08-12T16:00:00.426Z,24.19
2022-08-12T16:02:29.706Z,24.16
2022-08-12T16:04:58.505Z,24.13
2022-08-12T16:07:39.509Z,24.09
2022-08-12T16:10:10.670Z,24.07
2022-08-12T16:12:43.381Z,24.06
2022-08-12T16:15:13.374Z,24.03
2022-08-12T16:18:14.897Z,24.03
2022-08-12T16:20:33.808Z,24.03
2022-08-12T16:23:36.170Z,24.01
2022-08-12T16:26:05.562Z,24.02
2022-08-12T16:28:35.294Z,24.00
2022-08-12T16:31:05.627Z,24.01
2022-08-12T16:33:59.048Z,24.00
2022-08-12T16:36:25.902Z,24.00
2022-08-12T16:38:53.963Z,24.00
2022-08-12T16:41:25.604Z,23.99
2022-08-12T16:43:56.447Z,23.99
2022-08-12T16:46:33.609Z,23.99
2022-08-12T16:49:09.208Z,23.99
2022-08-12T16:51:46.018Z,23.99
2022-08-12T16:54:16.748Z,23.98
2022-08-12T16:56:50.927Z,23.99
2022-08-12T16:59:53.525Z,24.00
2022-08-12T17:02:30.129Z,23.98
2022-08-12T17:05:02.983Z,23.98
2022-08-12T17:07:43.230Z,23.99
2022-08-12T17:10:18.150Z,23.97
2022-08-12T17:12:48.014Z,23.99
2022-08-12T17:15:25.667Z,23.98
2022-08-12T17:18:42.095Z,23.97
2022-08-12T17:20:56.363Z,23.96
2022-08-12T17:23:26.690Z,23.97
2022-08-12T17:26:03.475Z,23.97
2022-08-12T17:28:34.124Z,23.96
2022-08-12T17:31:02.872Z,23.97
2022-08-12T17:33:34.163Z,23.97
2022-08-12T17:36:05.684Z,23.99
2022-08-12T17:38:35.063Z,23.99
2022-08-12T17:41:22.321Z,24.00
2022-08-12T17:43:58.361Z,23.99
2022-08-12T17:46:32.149Z,23.99
2022-08-12T17:49:06.643Z,23.99
2022-08-12T17:51:50.179Z,23.98
2022-08-12T17:54:19.006Z,24.19
2022-08-12T17:56:47.912Z,24.52
2022-08-12T17:59:47.535Z,24.59
2022-08-12T18:02:13.507Z,24.74
2022-08-12T18:05:04.988Z,24.82
2022-08-12T18:07:31.394Z,24.73
2022-08-12T18:10:04.882Z,24.69
2022-08-12T18:12:38.568Z,24.69
2022-08-12T18:15:11.524Z,24.67
2022-08-12T18:17:59.958Z,24.71
2022-08-12T18:20:29.356Z,24.68
2022-08-12T18:23:01.087Z,24.64
2022-08-12T18:26:15.908Z,24.57
2022-08-12T18:28:43.068Z,24.47
2022-08-12T18:31:14.827Z,24.40
2022-08-12T18:33:45.837Z,24.36
2022-08-12T18:36:22.036Z,24.32
2022-08-12T18:38:56.191Z,24.30
2022-08-12T18:41:33.670Z,24.28
2022-08-12T18:44:05.350Z,24.27
2022-08-12T18:47:02.109Z,24.26
2022-08-12T18:49:38.691Z,24.24
2022-08-12T18:52:11.511Z,24.24
2022-08-12T18:54:48.848Z,24.24
2022-08-12T18:57:46.048Z,24.24
2022-08-12T19:00:15.903Z,24.23
2022-08-12T19:02:46.888Z,24.22
2022-08-12T19:05:17.533Z,24.22
2022-08-12T19:08:00.319Z,24.21
2022-08-12T19:10:32.705Z,24.21
2022-08-12T19:13:23.159Z,24.20
2022-08-12T19:15:54.956Z,24.20
2022-08-12T19:18:29.230Z,24.19
2022-08-12T19:20:58.390Z,24.17
2022-08-12T19:23:33.803Z,24.18
2022-08-12T19:26:05.283Z,24.16
2022-08-12T19:28:38.894Z,24.15
2022-08-12T19:31:57.942Z,24.15
2022-08-12T19:37:27.112Z,24.13
2022-08-12T19:40:08.755Z,24.12
2022-08-12T19:42:57.540Z,24.10
2022-08-12T19:45:43.392Z,24.11
2022-08-12T19:48:18.716Z,24.10
2022-08-12T19:50:52.726Z,24.09
2022-08-12T19:53:22.838Z,24.08
2022-08-12T19:55:53.298Z,24.07
2022-08-12T19:58:23.081Z,24.05
2022-08-12T20:00:54.366Z,24.03
2022-08-12T20:03:38.326Z,24.04
2022-08-12T20:06:13.785Z,24.03
2022-08-12T20:08:47.934Z,24.03
2022-08-12T20:12:12.607Z,24.01
2022-08-12T20:14:12.488Z,23.99
2022-08-12T20:16:51.794Z,23.96
2022-08-12T20:19:23.357Z,23.97
2022-08-12T20:21:54.881Z,23.95
2022-08-12T20:24:23.348Z,23.94
2022-08-12T20:26:59.415Z,23.94
2022-08-12T20:29:36.592Z,23.94
2022-08-12T20:32:05.955Z,23.93
2022-08-12T20:34:39.073Z,23.94
2022-08-12T20:37:10.152Z,23.94
2022-08-12T20:39:53.732Z,23.94
2022-08-12T20:42:25.579Z,23.95
2022-08-12T20:44:59.537Z,23.95
2022-08-12T20:47:42.035Z,23.95
2022-08-12T20:50:15.432Z,23.97
2022-08-12T20:52:49.078Z,23.96
2022-08-12T20:55:19.526Z,23.98
2022-08-12T20:58:01.863Z,23.97
2022-08-12T21:00:34.024Z,23.96
2022-08-12T21:03:16.072Z,23.96
2022-08-12T21:06:12.210Z,23.97
2022-08-12T21:08:43.983Z,23.98
2022-08-12T21:11:11.971Z,23.98
2022-08-12T21:13:41.645Z,23.97
2022-08-12T21:16:10.446Z,23.98
2022-08-12T21:18:38.627Z,23.99
2022-08-12T21:21:23.713Z,23.98
2022-08-12T21:23:56.583Z,23.99
2022-08-12T21:26:28.066Z,23.98
2022-08-12T21:29:01.153Z,24.00
2022-08-12T21:32:37.361Z,23.98
2022-08-12T21:34:26.109Z,23.98
2022-08-12T21:37:12.888Z,23.98
2022-08-12T21:39:46.313Z,23.98
2022-08-12T21:42:20.941Z,23.97
2022-08-12T21:45:47.526Z,23.97
2022-08-12T21:47:45.042Z,23.98
2022-08-12T21:50:15.586Z,23.99
2022-08-12T21:52:43.504Z,23.97
2022-08-12T21:55:20.377Z,23.99
2022-08-12T21:57:53.347Z,23.97
2022-08-12T22:00:33.453Z,23.96
2022-08-12T22:04:01.449Z,23.99
2022-08-12T22:06:30.362Z,23.99
2022-08-12T22:09:15.264Z,23.98
2022-08-12T22:11:56.705Z,23.99
2022-08-12T22:14:28.019Z,23.99
2022-08-12T22:16:57.307Z,23.99
2022-08-12T22:19:26.694Z,23.99
2022-08-12T22:21:58.877Z,23.99
2022-08-12T22:24:31.984Z,23.99
2022-08-12T22:27:14.309Z,24.00
2022-08-12T22:30:15.964Z,23.98
2022-08-12T22:32:50.420Z,23.99
2022-08-12T22:35:56.239Z,23.96
2022-08-12T22:38:25.369Z,23.98
2022-08-12T22:40:55.268Z,23.96
2022-08-12T22:44:01.128Z,23.98
2022-08-12T22:46:52.578Z,23.98
2022-08-12T22:49:22.208Z,24.00
2022-08-12T22:52:00.663Z,23.99
2022-08-12T22:54:36.141Z,23.96
2022-08-12T22:57:12.191Z,23.96
2022-08-12T22:59:55.703Z,23.96
2022-08-12T23:02:28.611Z,23.96
2022-08-12T23:04:58.377Z,23.96
2022-08-12T23:07:26.620Z,23.95
2022-08-12T23:10:05.105Z,23.95
2022-08-12T23:12:51.061Z,23.95
2022-08-12T23:15:23.016Z,23.95
2022-08-12T23:17:51.039Z,23.95
2022-08-12T23:20:22.545Z,23.95
2022-08-12T23:23:02.920Z,23.93
2022-08-12T23:25:55.533Z,23.94
2022-08-12T23:28:42.454Z,23.94
2022-08-12T23:31:11.943Z,23.94
2022-08-12T23:34:01.424Z,23.93
2022-08-12T23:36:39.159Z,23.93
2022-08-12T23:40:13.298Z,23.93
2022-08-12T23:42:16.386Z,23.92
2022-08-12T23:44:48.619Z,23.92
2022-08-12T23:47:22.859Z,23.91
2022-08-12T23:49:57.700Z,23.92
2022-08-12T23:52:34.152Z,23.92
2022-08-12T23:55:23.966Z,23.92
2022-08-12T23:58:22.433Z,23.92
